Time;durP1;ratioP1;P1;durP2;ratioP2;P2;SDS_P1;SDS_P2;PMS_P1;PMS_P2;Temp;Humidity;BMP_temperature;BMP_pressure;BME280_temperature;BME280_humidity;BME280_pressure;Samples;Min_cycle;Max_cycle;Signal;HPM_P1;HPM_P2
2022/02/13 00:01:09;;;;;;;15.10;9.00;;;12.00;99.90;;;;;;4971188;28;20066;-56
2022/02/13 00:03:36;;;;;;;19.45;10.40;;;11.90;99.90;;;;;;4973000;28;20066;-56
2022/02/13 00:06:04;;;;;;;14.90;8.52;;;12.00;99.90;;;;;;4973056;28;20043;-54
2022/02/13 00:08:33;;;;;;;14.32;9.88;;;12.00;99.90;;;;;;4974037;28;20039;-55
2022/02/13 00:11:10;;;;;;;16.88;9.30;;;12.00;99.90;;;;;;4972217;28;20453;-55
2022/02/13 00:13:38;;;;;;;22.92;12.60;;;12.00;99.90;;;;;;4972701;28;20098;-53
2022/02/13 00:16:06;;;;;;;20.52;12.07;;;11.90;99.90;;;;;;4970907;28;20090;-58
2022/02/13 00:18:33;;;;;;;25.80;15.40;;;11.80;99.90;;;;;;4974256;28;20101;-55
2022/02/13 00:21:01;;;;;;;21.80;15.13;;;11.70;99.90;;;;;;4972194;28;20481;-55
2022/02/13 00:23:28;;;;;;;24.17;17.15;;;11.60;99.90;;;;;;4972814;28;20042;-56
2022/02/13 00:25:56;;;;;;;33.70;21.05;;;11.50;99.90;;;;;;4971713;28;20094;-56
2022/02/13 00:28:23;;;;;;;29.27;20.33;;;11.50;99.90;;;;;;4973947;28;20065;-55
2022/02/13 00:30:51;;;;;;;28.95;17.95;;;11.40;99.90;;;;;;4972662;28;20047;-53
2022/02/13 00:33:19;;;;;;;27.48;18.17;;;11.40;99.90;;;;;;4972417;28;20383;-54
2022/02/13 00:35:47;;;;;;;25.15;17.63;;;11.30;99.90;;;;;;4972162;28;20049;-55
2022/02/13 00:38:16;;;;;;;23.40;15.73;;;11.30;99.90;;;;;;4972489;28;20050;-54
2022/02/13 00:40:44;;;;;;;28.48;17.95;;;11.30;99.90;;;;;;4971849;28;20504;-52
2022/02/13 00:43:13;;;;;;;26.23;17.05;;;11.20;99.90;;;;;;4972310;28;20375;-54
2022/02/13 00:45:40;;;;;;;23.80;15.52;;;11.30;99.90;;;;;;4972184;28;20075;-56
2022/02/13 00:48:10;;;;;;;23.88;15.95;;;11.20;99.90;;;;;;4980475;28;20051;-54
2022/02/13 00:50:39;;;;;;;25.42;15.75;;;11.20;99.90;;;;;;4967543;28;20038;-53
2022/02/13 00:53:07;;;;;;;22.25;15.18;;;11.20;99.90;;;;;;4972526;28;20049;-56
2022/02/13 00:55:34;;;;;;;25.35;15.23;;;11.20;99.90;;;;;;4972270;28;20042;-55
2022/02/13 00:58:02;;;;;;;24.13;16.30;;;11.20;99.90;;;;;;4973026;28;20560;-55
2022/02/13 01:00:29;;;;;;;23.05;15.25;;;11.20;99.90;;;;;;4972241;28;20058;-55
2022/02/13 01:02:58;;;;;;;24.00;15.85;;;11.10;99.90;;;;;;4960715;28;20077;-55
2022/02/13 01:05:26;;;;;;;25.52;15.60;;;11.10;99.90;;;;;;4972760;28;20130;-55
2022/02/13 01:07:53;;;;;;;24.95;15.27;;;11.10;99.90;;;;;;4962291;28;20035;-56
2022/02/13 01:10:21;;;;;;;20.77;14.25;;;11.10;99.90;;;;;;4972083;28;20031;-56
2022/02/13 01:12:48;;;;;;;15.23;11.35;;;11.10;99.90;;;;;;4972301;28;20066;-54
2022/02/13 01:15:16;;;;;;;23.70;14.05;;;11.10;99.90;;;;;;4968704;28;20051;-54
2022/02/13 01:17:43;;;;;;;17.15;11.45;;;11.10;99.90;;;;;;4970455;28;20478;-57
2022/02/13 01:20:12;;;;;;;18.05;10.70;;;11.10;99.90;;;;;;4971559;28;20199;-55
2022/02/13 01:22:39;;;;;;;16.30;9.30;;;11.20;99.90;;;;;;4972142;28;20065;-53
2022/02/13 01:25:07;;;;;;;10.52;7.90;;;11.20;99.90;;;;;;4972487;28;20137;-56
2022/02/13 01:27:35;;;;;;;15.70;8.63;;;11.20;99.90;;;;;;4975022;28;20113;-55
2022/02/13 01:30:03;;;;;;;10.88;6.78;;;11.30;99.90;;;;;;4976061;28;20039;-57
2022/02/13 01:32:31;;;;;;;9.43;6.53;;;11.30;99.90;;;;;;4975909;28;20484;-56
2022/02/13 01:34:59;;;;;;;11.13;6.50;;;11.30;99.90;;;;;;4972512;28;20561;-55
2022/02/13 01:37:26;;;;;;;12.70;7.57;;;11.40;99.90;;;;;;4971132;28;20042;-57
2022/02/13 01:39:54;;;;;;;11.07;6.38;;;11.40;99.90;;;;;;4975525;28;20053;-56
2022/02/13 01:42:21;;;;;;;12.52;7.57;;;11.40;99.90;;;;;;4975728;28;20043;-55
2022/02/13 01:44:53;;;;;;;13.52;8.07;;;11.40;99.90;;;;;;4964947;28;20485;-57
2022/02/13 01:47:20;;;;;;;16.33;9.20;;;11.40;99.90;;;;;;4975849;28;20109;-56
2022/02/13 01:49:48;;;;;;;14.45;7.95;;;11.40;99.90;;;;;;4969549;28;20055;-54
2022/02/13 01:52:16;;;;;;;11.70;8.00;;;11.40;99.90;;;;;;4973039;28;20035;-56
2022/02/13 01:54:43;;;;;;;17.63;8.80;;;11.40;99.90;;;;;;4974711;28;20078;-56
2022/02/13 01:57:11;;;;;;;13.27;7.47;;;11.50;99.90;;;;;;4975671;28;20042;-55
2022/02/13 01:59:40;;;;;;;10.40;7.78;;;11.50;99.90;;;;;;4974964;28;20383;-55
2022/02/13 02:02:07;;;;;;;11.30;6.28;;;11.50;99.90;;;;;;4975352;28;20142;-55
2022/02/13 02:04:35;;;;;;;11.25;6.78;;;11.50;99.90;;;;;;4975152;28;20490;-55
2022/02/13 02:07:03;;;;;;;9.02;6.00;;;11.50;99.90;;;;;;4990717;28;20042;-57
2022/02/13 02:09:31;;;;;;;12.05;6.03;;;11.50;99.90;;;;;;4974026;28;20102;-55
2022/02/13 02:12:05;;;;;;;10.77;6.80;;;11.50;99.90;;;;;;4976270;28;20046;-57
2022/02/13 02:14:33;;;;;;;10.10;5.95;;;11.50;99.90;;;;;;4975191;28;20098;-54
2022/02/13 02:17:00;;;;;;;9.95;5.63;;;11.50;99.90;;;;;;4974900;28;20035;-57
2022/02/13 02:19:31;;;;;;;11.32;6.43;;;11.50;99.90;;;;;;4974777;28;20122;-54
2022/02/13 02:21:59;;;;;;;14.93;6.80;;;11.50;99.90;;;;;;4975739;28;20047;-52
2022/02/13 02:24:26;;;;;;;9.65;5.50;;;11.50;99.90;;;;;;4974674;28;20050;-56
2022/02/13 02:26:54;;;;;;;10.77;5.72;;;11.50;99.90;;;;;;4974698;28;20046;-55
2022/02/13 02:29:21;;;;;;;9.90;5.43;;;11.50;99.90;;;;;;4972129;28;20047;-57
2022/02/13 02:31:49;;;;;;;11.48;6.90;;;11.50;99.90;;;;;;4969224;28;20074;-57
2022/02/13 02:34:16;;;;;;;8.75;5.85;;;11.50;99.90;;;;;;4975850;28;20457;-55
2022/02/13 02:36:44;;;;;;;10.00;6.05;;;11.50;99.90;;;;;;4973300;28;20053;-56
2022/02/13 02:39:11;;;;;;;8.70;5.13;;;11.50;99.90;;;;;;4976343;28;20133;-54
2022/02/13 02:41:39;;;;;;;11.15;6.53;;;11.50;99.90;;;;;;4976965;28;20039;-56
2022/02/13 02:44:06;;;;;;;12.60;6.45;;;11.50;99.90;;;;;;4992207;28;20047;-55
2022/02/13 02:46:34;;;;;;;8.00;6.05;;;11.50;99.90;;;;;;4977132;28;20074;-55
2022/02/13 02:49:01;;;;;;;9.93;5.38;;;11.50;99.90;;;;;;4977236;28;20441;-55
2022/02/13 02:51:29;;;;;;;12.25;5.60;;;11.50;99.90;;;;;;4976124;28;20098;-56
2022/02/13 02:53:56;;;;;;;11.05;6.75;;;11.50;99.90;;;;;;4976930;28;20093;-56
2022/02/13 02:56:24;;;;;;;10.68;6.18;;;11.50;99.90;;;;;;4973714;28;20127;-53
2022/02/13 02:58:51;;;;;;;8.32;5.47;;;11.50;99.90;;;;;;4976690;28;20047;-56
2022/02/13 03:01:19;;;;;;;11.27;5.45;;;11.50;99.90;;;;;;4975306;28;20425;-56
2022/02/13 03:03:47;;;;;;;13.93;6.18;;;11.50;99.90;;;;;;4976887;28;20046;-56
2022/02/13 03:06:14;;;;;;;11.45;4.80;;;11.50;99.90;;;;;;4976032;28;20051;-56
2022/02/13 03:08:42;;;;;;;8.90;5.03;;;11.40;99.90;;;;;;4976627;28;20113;-55
2022/02/13 03:11:09;;;;;;;8.32;4.75;;;11.50;99.90;;;;;;4977005;28;20046;-56
2022/02/13 03:13:37;;;;;;;6.88;4.60;;;11.40;99.90;;;;;;4976443;28;20058;-56
2022/02/13 03:16:04;;;;;;;14.05;5.82;;;11.40;99.90;;;;;;4976577;28;20489;-55
2022/02/13 03:18:32;;;;;;;8.13;4.90;;;11.30;99.90;;;;;;4976257;28;20055;-54
2022/02/13 03:21:00;;;;;;;8.10;5.00;;;11.40;99.90;;;;;;4975155;28;20577;-56
2022/02/13 03:23:28;;;;;;;7.38;4.90;;;11.40;99.90;;;;;;4991079;28;20106;-56
2022/02/13 03:25:56;;;;;;;7.88;4.55;;;11.30;99.90;;;;;;4976344;28;20475;-54
2022/02/13 03:28:23;;;;;;;10.15;4.93;;;11.30;99.90;;;;;;4976694;28;20089;-56
2022/02/13 03:30:51;;;;;;;8.38;4.68;;;11.30;99.90;;;;;;4976273;28;20093;-56
2022/02/13 03:33:19;;;;;;;10.20;6.63;;;11.30;99.90;;;;;;4976329;28;20437;-56
2022/02/13 03:35:46;;;;;;;10.68;4.50;;;11.30;99.90;;;;;;4976224;28;20096;-55
2022/02/13 03:38:14;;;;;;;7.47;5.13;;;11.30;99.90;;;;;;4975767;28;20047;-55
2022/02/13 03:40:41;;;;;;;9.25;5.20;;;11.30;99.90;;;;;;4976329;28;20500;-56
2022/02/13 03:43:09;;;;;;;11.05;5.70;;;11.30;99.90;;;;;;4976088;28;20043;-56
2022/02/13 03:45:36;;;;;;;6.90;4.55;;;11.30;99.90;;;;;;4974873;28;20046;-55
2022/02/13 03:48:04;;;;;;;9.85;4.85;;;11.30;99.90;;;;;;4976209;28;20541;-54
2022/02/13 03:50:32;;;;;;;7.78;4.88;;;11.30;99.90;;;;;;4975022;28;20122;-55
2022/02/13 03:52:59;;;;;;;9.35;5.07;;;11.30;99.90;;;;;;4975813;28;20090;-56
2022/02/13 03:55:27;;;;;;;10.85;6.15;;;11.30;99.90;;;;;;4975866;28;20061;-56
2022/02/13 03:57:54;;;;;;;7.07;5.15;;;11.30;99.90;;;;;;4975680;28;20130;-56
2022/02/13 04:00:22;;;;;;;9.23;5.32;;;11.30;99.90;;;;;;4975406;28;20130;-55
2022/02/13 04:02:55;;;;;;;9.55;5.78;;;11.30;99.90;;;;;;4974509;28;20577;-56
2022/02/13 04:05:23;;;;;;;7.05;5.13;;;11.30;99.90;;;;;;4975643;28;20078;-56
2022/02/13 04:07:51;;;;;;;10.32;5.60;;;11.30;99.90;;;;;;4975746;28;20046;-57
2022/02/13 04:10:19;;;;;;;10.90;5.05;;;11.20;99.90;;;;;;4975593;28;20047;-54
2022/02/13 04:12:47;;;;;;;9.15;4.82;;;11.20;99.90;;;;;;4975634;28;20133;-56
2022/02/13 04:15:15;;;;;;;8.90;5.28;;;11.20;99.90;;;;;;4975514;28;20038;-55
2022/02/13 04:17:43;;;;;;;11.25;5.43;;;11.20;99.90;;;;;;4975486;28;20138;-56
2022/02/13 04:20:11;;;;;;;7.57;4.22;;;11.20;99.90;;;;;;4975254;28;20039;-56
2022/02/13 04:22:38;;;;;;;7.00;4.10;;;11.10;99.90;;;;;;4975277;28;20055;-55
2022/02/13 04:25:07;;;;;;;6.38;4.13;;;11.20;99.90;;;;;;4975368;28;20537;-55
2022/02/13 04:27:36;;;;;;;9.70;5.05;;;11.20;99.90;;;;;;4975317;28;20129;-55
2022/02/13 04:30:05;;;;;;;5.95;4.53;;;11.20;99.90;;;;;;4975474;28;20457;-54
2022/02/13 04:32:33;;;;;;;8.95;6.05;;;11.20;99.90;;;;;;4975084;28;20047;-56
2022/02/13 04:35:00;;;;;;;8.77;4.38;;;11.30;99.90;;;;;;4974106;28;20064;-55
2022/02/13 04:37:28;;;;;;;13.35;5.45;;;11.30;99.90;;;;;;4975121;28;20070;-56
2022/02/13 04:39:56;;;;;;;7.88;4.03;;;11.30;99.90;;;;;;4975068;28;20121;-55
2022/02/13 04:42:23;;;;;;;6.65;4.00;;;11.40;99.90;;;;;;4973773;28;20050;-54
2022/02/13 04:44:50;;;;;;;10.45;5.63;;;11.40;99.90;;;;;;4975056;28;20397;-55
2022/02/13 04:47:18;;;;;;;8.80;4.75;;;11.40;99.90;;;;;;4975032;28;20069;-55
2022/02/13 04:49:46;;;;;;;8.18;4.20;;;11.40;99.90;;;;;;4974932;28;20137;-56
2022/02/13 04:52:14;;;;;;;6.85;3.63;;;11.40;99.90;;;;;;4974941;28;20102;-56
2022/02/13 04:54:41;;;;;;;9.07;4.63;;;11.40;99.90;;;;;;4973669;28;20109;-56
2022/02/13 04:57:09;;;;;;;8.27;5.40;;;11.40;99.90;;;;;;4974939;28;20174;-55
2022/02/13 04:59:37;;;;;;;8.10;4.78;;;11.30;99.90;;;;;;4973669;28;20410;-56
2022/02/13 05:02:05;;;;;;;13.18;5.85;;;11.20;99.90;;;;;;4974501;28;20142;-56
2022/02/13 05:04:33;;;;;;;12.68;5.53;;;11.20;99.90;;;;;;4974883;28;20078;-55
2022/02/13 05:07:01;;;;;;;9.18;5.35;;;11.10;99.90;;;;;;4974610;28;20054;-56
2022/02/13 05:09:29;;;;;;;8.18;5.55;;;11.10;99.90;;;;;;4974561;28;20057;-55
2022/02/13 05:11:56;;;;;;;9.30;5.70;;;11.10;99.90;;;;;;4974673;28;20133;-55
2022/02/13 05:14:25;;;;;;;9.80;5.38;;;11.10;99.90;;;;;;4974532;28;20123;-55
2022/02/13 05:16:52;;;;;;;10.57;5.35;;;11.10;99.90;;;;;;4974773;28;20425;-53
2022/02/13 05:19:19;;;;;;;8.10;5.10;;;11.10;99.90;;;;;;4974567;28;20375;-56
2022/02/13 05:21:48;;;;;;;11.27;6.05;;;11.10;99.90;;;;;;4974567;28;20070;-54
2022/02/13 05:24:16;;;;;;;9.88;5.00;;;11.00;99.90;;;;;;4974593;28;20418;-56
2022/02/13 05:26:43;;;;;;;10.85;5.25;;;11.00;99.90;;;;;;4974442;28;20125;-54
2022/02/13 05:29:11;;;;;;;9.00;5.45;;;11.00;99.90;;;;;;4974521;28;20078;-56
2022/02/13 05:31:38;;;;;;;8.07;5.70;;;11.00;99.90;;;;;;4974505;28;20117;-56
2022/02/13 05:34:07;;;;;;;8.10;5.30;;;10.90;99.90;;;;;;4974661;28;20039;-54
2022/02/13 05:36:34;;;;;;;7.38;5.18;;;11.00;99.90;;;;;;4974506;28;20043;-55
2022/02/13 05:39:02;;;;;;;10.77;6.95;;;10.90;99.90;;;;;;4974334;28;20486;-56
2022/02/13 05:41:29;;;;;;;14.20;5.72;;;10.90;99.90;;;;;;4974478;28;20046;-56
2022/02/13 05:43:57;;;;;;;14.50;6.65;;;10.90;99.90;;;;;;4974287;28;20071;-56
2022/02/13 05:46:25;;;;;;;17.35;7.63;;;10.90;99.90;;;;;;4974490;28;20121;-55
2022/02/13 05:48:53;;;;;;;11.80;6.93;;;10.90;99.90;;;;;;4974333;28;20150;-56
2022/02/13 05:51:23;;;;;;;12.32;6.78;;;10.90;99.90;;;;;;4974544;28;20442;-57
2022/02/13 05:53:51;;;;;;;9.43;6.65;;;10.90;99.90;;;;;;4974392;28;20035;-56
2022/02/13 05:56:18;;;;;;;10.85;6.43;;;11.00;99.90;;;;;;4974397;28;20049;-56
2022/02/13 05:58:47;;;;;;;9.23;6.60;;;11.00;99.90;;;;;;4973310;28;20078;-56
2022/02/13 06:01:15;;;;;;;11.73;6.60;;;11.00;99.90;;;;;;4974431;28;20051;-55
2022/02/13 06:03:43;;;;;;;14.10;6.50;;;11.00;99.90;;;;;;4973277;28;20050;-54
2022/02/13 06:06:10;;;;;;;10.73;6.65;;;11.00;99.90;;;;;;4974139;28;20046;-55
2022/02/13 06:08:39;;;;;;;13.38;7.82;;;11.00;99.90;;;;;;4974061;28;20043;-55
2022/02/13 06:11:07;;;;;;;8.98;5.90;;;11.00;99.90;;;;;;4974030;28;20062;-55
2022/02/13 06:13:35;;;;;;;9.73;5.85;;;11.00;99.90;;;;;;4976511;28;20089;-54
2022/02/13 06:16:06;;;;;;;8.60;5.53;;;11.00;99.90;;;;;;4977694;28;20055;-56
2022/02/13 06:18:34;;;;;;;11.82;7.20;;;11.00;99.90;;;;;;4976533;28;20101;-55
2022/02/13 06:21:03;;;;;;;8.70;5.47;;;11.10;99.90;;;;;;4977590;28;20051;-57
2022/02/13 06:23:31;;;;;;;11.45;5.85;;;11.10;99.90;;;;;;4977727;28;20573;-56
2022/02/13 06:25:58;;;;;;;8.00;6.05;;;11.10;99.90;;;;;;4992658;28;20058;-56
2022/02/13 06:28:26;;;;;;;10.65;7.22;;;11.10;99.90;;;;;;4977459;28;20043;-55
2022/02/13 06:30:54;;;;;;;9.45;5.82;;;11.10;99.90;;;;;;4977684;28;20043;-56
2022/02/13 06:33:21;;;;;;;12.93;7.47;;;11.10;99.90;;;;;;4977509;28;20057;-55
2022/02/13 06:35:49;;;;;;;12.23;6.75;;;11.20;99.90;;;;;;4977270;28;20126;-53
2022/02/13 06:38:17;;;;;;;10.40;6.05;;;11.20;99.90;;;;;;4977579;28;20426;-53
2022/02/13 06:40:44;;;;;;;12.32;5.97;;;11.20;99.90;;;;;;4977052;28;20382;-56
2022/02/13 06:43:12;;;;;;;10.63;7.28;;;11.30;99.90;;;;;;4977305;28;20042;-56
2022/02/13 06:45:41;;;;;;;9.20;7.28;;;11.30;99.90;;;;;;4976095;28;20043;-55
2022/02/13 06:48:09;;;;;;;8.50;5.40;;;11.40;99.90;;;;;;4977002;28;20133;-56
2022/02/13 06:50:37;;;;;;;9.48;5.85;;;11.40;99.90;;;;;;4972586;28;20046;-56
2022/02/13 06:53:05;;;;;;;10.95;6.53;;;11.50;99.90;;;;;;4975226;28;20053;-57
2022/02/13 06:55:33;;;;;;;11.88;6.55;;;11.70;99.90;;;;;;4974408;28;20443;-56
2022/02/13 06:58:02;;;;;;;11.20;5.93;;;11.80;99.90;;;;;;4968937;28;20094;-56
2022/02/13 07:00:30;;;;;;;16.20;6.20;;;12.00;99.90;;;;;;4968066;28;20401;-57
2022/02/13 07:02:57;;;;;;;10.00;6.80;;;12.20;99.90;;;;;;4973740;28;20045;-52
2022/02/13 07:05:25;;;;;;;10.13;6.50;;;12.30;99.90;;;;;;4973690;28;20066;-58
2022/02/13 07:07:52;;;;;;;9.98;5.90;;;12.50;99.90;;;;;;4974249;28;20050;-56
2022/02/13 07:10:20;;;;;;;9.40;5.28;;;12.60;99.90;;;;;;4975405;28;20433;-58
2022/02/13 07:12:47;;;;;;;17.65;5.65;;;12.80;99.90;;;;;;4974265;28;20079;-56
2022/02/13 07:15:15;;;;;;;8.50;5.72;;;13.10;99.90;;;;;;4973865;28;20042;-56
2022/02/13 07:17:44;;;;;;;8.88;5.05;;;13.30;99.90;;;;;;4973451;28;20043;-57
2022/02/13 07:20:12;;;;;;;8.18;5.10;;;13.50;99.90;;;;;;4973762;28;20039;-54
2022/02/13 07:22:40;;;;;;;8.05;5.00;;;13.70;99.90;;;;;;4973694;28;20063;-54
2022/02/13 07:25:08;;;;;;;7.07;4.82;;;14.00;99.90;;;;;;4972627;28;20043;-57
2022/02/13 07:27:37;;;;;;;7.32;5.18;;;14.40;99.90;;;;;;4974358;28;20478;-57
2022/02/13 07:30:07;;;;;;;8.63;5.13;;;14.80;99.50;;;;;;4974744;28;20496;-58
2022/02/13 07:32:34;;;;;;;9.05;5.40;;;15.40;98.70;;;;;;4973385;28;20038;-57
2022/02/13 07:35:02;;;;;;;13.73;5.15;;;15.90;97.80;;;;;;4972021;28;20472;-58
2022/02/13 07:37:29;;;;;;;6.25;4.88;;;16.30;97.10;;;;;;4975919;28;20051;-58
2022/02/13 07:39:57;;;;;;;9.27;5.28;;;16.70;96.50;;;;;;4976044;28;20394;-57
2022/02/13 07:42:25;;;;;;;25.63;6.05;;;17.10;95.80;;;;;;4974900;28;20047;-57
2022/02/13 07:44:52;;;;;;;12.32;4.85;;;17.30;95.60;;;;;;4976011;28;20596;-57
2022/02/13 07:47:20;;;;;;;8.20;4.95;;;17.60;95.00;;;;;;4976072;28;20074;-57
2022/02/13 07:49:48;;;;;;;16.38;12.25;;;17.70;94.70;;;;;;4976021;28;20051;-56
2022/02/13 07:52:15;;;;;;;11.18;8.55;;;17.70;94.50;;;;;;4975886;28;20133;-56
2022/02/13 07:54:44;;;;;;;8.10;6.60;;;17.70;94.50;;;;;;4975899;28;20039;-57
2022/02/13 07:57:12;;;;;;;10.55;7.25;;;17.60;94.60;;;;;;4975917;28;20049;-57
2022/02/13 07:59:42;;;;;;;12.68;6.22;;;17.50;94.70;;;;;;4975706;28;20039;-57
2022/02/13 08:02:10;;;;;;;13.68;7.18;;;17.50;94.70;;;;;;4975815;28;20078;-57
2022/02/13 08:04:41;;;;;;;12.52;6.72;;;17.50;94.90;;;;;;4975749;28;20125;-57
2022/02/13 08:07:09;;;;;;;10.68;6.72;;;17.40;94.80;;;;;;4975900;28;20047;-57
2022/02/13 08:09:36;;;;;;;9.80;5.85;;;17.40;94.90;;;;;;4974471;28;20050;-57
2022/02/13 08:12:04;;;;;;;6.45;4.45;;;17.40;94.80;;;;;;4990451;28;20046;-56
2022/02/13 08:14:32;;;;;;;9.00;4.38;;;17.40;95.00;;;;;;4975231;28;20082;-56
2022/02/13 08:17:00;;;;;;;9.52;4.53;;;17.40;94.90;;;;;;4975425;28;20167;-57
2022/02/13 08:19:27;;;;;;;7.68;4.60;;;17.40;94.90;;;;;;4975410;28;20049;-57
2022/02/13 08:21:55;;;;;;;9.07;5.40;;;17.60;95.00;;;;;;4975481;28;20047;-57
2022/02/13 08:24:22;;;;;;;10.40;5.13;;;17.60;94.80;;;;;;4975249;28;20540;-57
2022/02/13 08:26:50;;;;;;;11.18;5.55;;;17.60;94.60;;;;;;4975297;28;20038;-57
2022/02/13 08:29:18;;;;;;;7.60;4.78;;;17.50;94.70;;;;;;4975297;28;20390;-57
2022/02/13 08:31:46;;;;;;;7.97;3.83;;;17.30;94.80;;;;;;4975287;28;20493;-57
2022/02/13 08:34:15;;;;;;;8.93;4.70;;;17.10;95.10;;;;;;4975315;28;20046;-56
2022/02/13 08:36:42;;;;;;;8.73;5.07;;;16.90;95.50;;;;;;4974781;28;20051;-57
2022/02/13 08:39:10;;;;;;;10.55;4.82;;;16.70;95.60;;;;;;4974954;28;20053;-56
2022/02/13 08:41:37;;;;;;;7.85;4.05;;;16.50;95.80;;;;;;4973890;28;20497;-57
2022/02/13 08:44:06;;;;;;;8.18;4.18;;;16.40;96.10;;;;;;4975180;28;20129;-57
2022/02/13 08:46:35;;;;;;;8.65;4.47;;;16.40;96.30;;;;;;4974052;28;20050;-57
2022/02/13 08:49:03;;;;;;;13.32;5.47;;;16.40;96.70;;;;;;4975164;28;20514;-56
2022/02/13 08:51:31;;;;;;;8.52;4.93;;;16.50;96.30;;;;;;4975114;28;20069;-56
2022/02/13 08:53:58;;;;;;;6.95;5.75;;;16.80;96.30;;;;;;4975047;28;20043;-57
2022/02/13 08:56:26;;;;;;;8.70;4.85;;;17.10;95.80;;;;;;4974985;28;20086;-56
2022/02/13 08:58:55;;;;;;;8.85;4.55;;;17.40;95.50;;;;;;4974846;28;20541;-57
2022/02/13 09:01:24;;;;;;;8.15;3.92;;;17.60;94.80;;;;;;4990262;28;20084;-55
2022/02/13 09:03:51;;;;;;;7.75;4.00;;;17.70;94.30;;;;;;4977255;28;20065;-57
2022/02/13 09:06:19;;;;;;;8.82;3.80;;;17.60;93.80;;;;;;4974693;28;20501;-56
2022/02/13 09:08:47;;;;;;;7.10;3.25;;;17.70;93.80;;;;;;4973698;28;20060;-56
2022/02/13 09:11:16;;;;;;;6.90;3.70;;;17.70;93.80;;;;;;4973797;28;20059;-57
2022/02/13 09:13:44;;;;;;;6.55;4.03;;;17.70;93.50;;;;;;4974674;28;20047;-56
2022/02/13 09:16:12;;;;;;;7.68;4.45;;;17.80;93.10;;;;;;4974853;28;20042;-57
2022/02/13 09:18:42;;;;;;;4.68;3.15;;;17.90;93.10;;;;;;4974988;28;20057;-57
2022/02/13 09:21:09;;;;;;;6.93;3.00;;;18.00;92.90;;;;;;4973345;28;20047;-57
2022/02/13 09:23:37;;;;;;;7.80;2.95;;;18.10;92.80;;;;;;4973626;28;20042;-57
2022/02/13 09:26:04;;;;;;;9.23;3.95;;;18.10;92.60;;;;;;4974531;28;20066;-56
2022/02/13 09:28:32;;;;;;;6.50;3.20;;;18.00;92.60;;;;;;4974520;28;20474;-57
2022/02/13 09:31:03;;;;;;;4.88;3.30;;;17.90;92.60;;;;;;4974780;28;20133;-56
2022/02/13 09:33:31;;;;;;;6.43;4.35;;;18.00;92.50;;;;;;4974631;28;20086;-55
2022/02/13 09:35:59;;;;;;;5.43;2.90;;;18.00;92.10;;;;;;4974564;28;20446;-57
2022/02/13 09:38:26;;;;;;;5.32;3.53;;;18.00;92.30;;;;;;4973437;28;20051;-58
2022/02/13 09:40:54;;;;;;;5.57;4.05;;;18.20;92.40;;;;;;4974454;28;20043;-57
2022/02/13 09:43:22;;;;;;;4.85;3.95;;;18.30;92.40;;;;;;4964014;28;20130;-58
2022/02/13 09:45:52;;;;;;;4.78;3.33;;;18.30;91.70;;;;;;4967862;28;20043;-58
2022/02/13 09:48:27;;;;;;;7.63;3.90;;;18.30;91.20;;;;;;4973564;28;20519;-57
2022/02/13 09:50:55;;;;;;;6.45;3.30;;;18.40;91.10;;;;;;4966048;28;20449;-57
2022/02/13 09:53:23;;;;;;;9.15;3.15;;;18.40;90.90;;;;;;4976578;28;20163;-56
2022/02/13 09:55:51;;;;;;;7.30;3.53;;;18.50;90.90;;;;;;4977959;28;20053;-57
2022/02/13 09:58:19;;;;;;;5.72;3.55;;;18.60;91.20;;;;;;4978332;28;20490;-57
2022/02/13 10:00:55;;;;;;;4.82;2.55;;;18.70;90.80;;;;;;4978018;28;20609;-57
2022/02/13 10:03:31;;;;;;;5.90;3.33;;;18.80;90.40;;;;;;4987290;28;20082;-57
2022/02/13 10:06:23;;;;;;;4.63;2.90;;;18.80;90.60;;;;;;4977964;28;20093;-57
2022/02/13 10:08:56;;;;;;;8.93;3.83;;;18.90;90.50;;;;;;4975331;28;20501;-57
2022/02/13 10:11:33;;;;;;;5.78;3.80;;;19.00;90.50;;;;;;4977930;28;20097;-57
2022/02/13 10:14:06;;;;;;;10.52;3.72;;;19.00;90.10;;;;;;4976482;28;20046;-58
2022/02/13 10:16:36;;;;;;;5.43;3.00;;;19.10;90.10;;;;;;4977697;28;20039;-57
2022/02/13 10:19:05;;;;;;;4.70;3.10;;;19.10;90.00;;;;;;4977833;28;20050;-57
2022/02/13 10:21:44;;;;;;;5.43;3.70;;;19.10;90.00;;;;;;4977602;28;20043;-57
2022/02/13 10:24:14;;;;;;;4.55;2.72;;;19.00;90.10;;;;;;4976407;28;20065;-55
2022/02/13 10:26:43;;;;;;;5.70;2.92;;;19.00;90.20;;;;;;4977426;28;20413;-55
2022/02/13 10:29:12;;;;;;;8.02;3.05;;;18.90;90.20;;;;;;4976142;28;20146;-57
2022/02/13 10:31:41;;;;;;;5.78;3.78;;;18.90;90.40;;;;;;4976378;28;20462;-57
2022/02/13 10:34:11;;;;;;;4.32;3.30;;;19.00;90.50;;;;;;4977219;28;20061;-58
2022/02/13 10:36:47;;;;;;;4.90;3.22;;;19.00;90.10;;;;;;4977229;28;20043;-62
2022/02/13 10:39:24;;;;;;;19.92;4.13;;;19.00;90.10;;;;;;4977258;28;20486;-58
2022/02/13 10:41:53;;;;;;;5.47;3.25;;;19.10;90.60;;;;;;4976068;28;20045;-58
2022/02/13 10:44:29;;;;;;;9.48;3.75;;;19.20;89.60;;;;;;4977355;28;20074;-58
2022/02/13 10:46:56;;;;;;;5.95;3.83;;;19.10;89.20;;;;;;4977409;28;20129;-58
2022/02/13 10:49:25;;;;;;;5.53;3.75;;;19.20;90.00;;;;;;4977539;28;20090;-59
2022/02/13 10:51:53;;;;;;;6.55;4.18;;;19.20;89.20;;;;;;4977038;28;20050;-58
2022/02/13 10:54:21;;;;;;;6.72;4.65;;;19.20;89.00;;;;;;4975986;28;20051;-58
2022/02/13 10:56:49;;;;;;;5.45;3.92;;;19.20;88.50;;;;;;4976247;28;20057;-58
2022/02/13 10:59:17;;;;;;;6.28;4.15;;;19.30;88.50;;;;;;4976468;28;20121;-59
2022/02/13 11:01:48;;;;;;;6.45;3.85;;;19.20;88.30;;;;;;4975831;28;20141;-58
2022/02/13 11:04:19;;;;;;;11.27;4.22;;;19.30;88.00;;;;;;4976889;28;20055;-57
2022/02/13 11:06:48;;;;;;;4.90;3.50;;;19.10;86.10;;;;;;4976895;28;20094;-55
2022/02/13 11:09:21;;;;;;;6.45;4.20;;;19.10;86.90;;;;;;4976974;28;20042;-56
2022/02/13 11:11:51;;;;;;;5.95;3.22;;;19.00;86.50;;;;;;4975892;28;20568;-56
2022/02/13 11:14:28;;;;;;;4.28;3.00;;;18.90;87.20;;;;;;4976687;28;20081;-57
2022/02/13 11:16:58;;;;;;;12.77;4.82;;;18.90;87.50;;;;;;4976628;28;20061;-57
2022/02/13 11:19:27;;;;;;;10.02;4.22;;;18.80;87.60;;;;;;4959674;28;20046;-57
2022/02/13 11:21:54;;;;;;;12.13;4.75;;;18.80;86.40;;;;;;4975688;28;20070;-56
2022/02/13 11:24:28;;;;;;;10.48;5.63;;;18.70;86.20;;;;;;4975545;28;20061;-55
2022/02/13 11:27:01;;;;;;;9.15;4.60;;;18.70;87.00;;;;;;4975579;28;20053;-55
2022/02/13 11:30:08;;;;;;;9.52;4.00;;;18.70;86.90;;;;;;4976451;28;20101;-56
2022/02/13 11:32:39;;;;;;;6.85;4.10;;;18.70;86.10;;;;;;4954860;29;20052;-56
2022/02/13 11:35:12;;;;;;;7.40;4.03;;;18.70;86.80;;;;;;4954783;29;20058;-55
2022/02/13 11:37:58;;;;;;;5.63;3.83;;;18.80;85.50;;;;;;4966526;28;20038;-56
2022/02/13 11:40:35;;;;;;;8.05;4.18;;;18.70;86.80;;;;;;4976426;28;20078;-56
2022/02/13 11:43:07;;;;;;;6.80;3.75;;;18.60;88.30;;;;;;4959589;28;20042;-56
2022/02/13 11:45:48;;;;;;;8.93;3.38;;;18.40;87.70;;;;;;4976287;28;20053;-56
2022/02/13 11:48:35;;;;;;;7.80;4.65;;;18.40;86.50;;;;;;4976311;28;20041;-55
2022/02/13 11:51:05;;;;;;;7.95;4.22;;;18.30;85.80;;;;;;4976273;28;20101;-56
2022/02/13 11:53:37;;;;;;;10.05;4.07;;;18.30;86.60;;;;;;4976156;28;20117;-55
2022/02/13 11:56:25;;;;;;;6.32;4.53;;;18.30;87.30;;;;;;4976431;28;20486;-49
2022/02/13 11:58:57;;;;;;;7.97;5.30;;;18.40;88.80;;;;;;4975820;28;20038;-54
2022/02/13 12:01:51;;;;;;;8.32;4.70;;;18.40;88.40;;;;;;4974743;28;20046;-53
2022/02/13 12:04:19;;;;;;;16.42;5.40;;;18.50;87.10;;;;;;4974780;28;20054;-54
2022/02/13 12:06:53;;;;;;;41.80;10.38;;;18.50;87.00;;;;;;4975646;28;20617;-49
2022/02/13 12:09:26;;;;;;;18.53;6.13;;;18.60;87.60;;;;;;4975942;28;20046;-56
2022/02/13 12:11:56;;;;;;;10.13;3.80;;;18.60;86.60;;;;;;4974039;28;20078;-55
2022/02/13 12:14:24;;;;;;;6.75;4.47;;;18.60;87.00;;;;;;4975972;28;20035;-55
2022/02/13 12:17:00;;;;;;;5.75;3.38;;;18.50;86.00;;;;;;4974612;28;20053;-53
2022/02/13 12:19:31;;;;;;;7.57;3.50;;;18.50;85.50;;;;;;4974412;28;20046;-54
2022/02/13 12:22:07;;;;;;;6.32;4.00;;;18.30;86.00;;;;;;4975506;28;20417;-55
2022/02/13 12:24:34;;;;;;;9.48;4.97;;;18.30;84.70;;;;;;4975449;28;20433;-52
2022/02/13 12:27:03;;;;;;;6.45;4.47;;;18.20;84.90;;;;;;4975303;28;20046;-53
2022/02/13 12:29:31;;;;;;;6.97;5.00;;;18.20;86.80;;;;;;4974308;28;20461;-52
2022/02/13 12:32:09;;;;;;;6.80;4.65;;;17.90;88.20;;;;;;4990463;28;20149;-54
2022/02/13 12:34:57;;;;;;;6.13;4.68;;;17.70;88.90;;;;;;4975216;28;20050;-52
2022/02/13 12:37:41;;;;;;;7.60;4.60;;;17.50;89.70;;;;;;4975426;28;20043;-56
2022/02/13 12:40:10;;;;;;;9.35;5.40;;;17.50;90.50;;;;;;4975341;28;20043;-53
2022/02/13 12:42:43;;;;;;;10.77;3.90;;;17.40;90.70;;;;;;4975210;28;20042;-53
2022/02/13 12:45:17;;;;;;;6.40;3.63;;;17.40;89.90;;;;;;4967671;28;20493;-56
2022/02/13 12:47:52;;;;;;;8.15;4.18;;;17.40;89.10;;;;;;4967588;28;20071;-58
2022/02/13 12:50:23;;;;;;;6.18;4.60;;;17.40;90.00;;;;;;4965112;28;20083;-56